Terminal Aerodrome Forecast
Issued by NWS

Current Version | Previous Version | Graphics & Text | Print | Product List | Glossary On
Versions: 1 2 3 4 5 6 7 8 9 10 11 12 13 14 15 16 17 18 19 20 21 22 23 24 25 26 27 28 29 30 31 32 33 34 35 36 37 38 39 40 41 42 43 44 45 46 47 48 49 50
000
FTUS41 KRNK 251121 CCB
TAFLWB
TAF COR
KLWB 251121Z 2511/2612 22006KT P6SM BKN002 OVC035
      TEMPO 2512/2514 3SM BR SCT002 BKN040
     FM251400 24007KT P6SM BKN035
     FM251900 24008KT P6SM VCTS OVC030CB
     FM260100 29005KT P6SM BKN015=

USA.gov is the U.S. government's official web portal to all federal, state and local government web resources and services.